D/T METAR WX W/DIR W/SPE G/SPE TEMP DEWP
7/06/20 08:50 EGLF 070750Z AUTO 28006KT 230V330 9999 NCD 13/09 Q1008 W (280°) 6.9mph 13°C 9°C
7/06/20 08:20 EGLF 070720Z AUTO 26005KT 220V300 9999 NCD 12/09 Q1007 W (260°) 5.8mph 12°C 9°C
7/06/20 07:50 EGLF 070650Z AUTO 29005KT 240V320 9999 NCD 11/08 Q1007 WNW (290°) 5.8mph 11°C 8°C
7/06/20 07:20 EGLF 070620Z AUTO 25005KT 9999 NCD 10/08 Q1007 WSW (250°) 5.8mph 10°C 8°C
7/06/20 06:50 EGLF 070550Z AUTO 25005KT 220V280 9999 NCD 09/08 Q1006 WSW (250°) 5.8mph 9°C 8°C
7/06/20 06:20 EGLF 070520Z AUTO 25005KT 9999 NCD 08/07 Q1006 WSW (250°) 5.8mph 8°C 7°C
7/06/20 05:50 EGLF 070450Z AUTO 24004KT 9999 NCD 07/07 Q1006 WSW (240°) 4.6mph 7°C 7°C
7/06/20 05:20 EGLF 070420Z AUTO 24006KT 9999 NCD 07/07 Q1005 WSW (240°) 6.9mph 7°C 7°C
7/06/20 04:50 EGLF 070350Z AUTO 25006KT 9999 NCD 05/04 Q1005 WSW (250°) 6.9mph 5°C 4°C
7/06/20 04:20 EGLF 070320Z AUTO VRB03KT 9999 NCD 07/06 Q1005 N (0°) 3.5mph 7°C 6°C
7/06/20 03:50 EGLF 070250Z AUTO VRB03KT 9999 NCD 08/07 Q1005 N (0°) 3.5mph 8°C 7°C
7/06/20 03:20 EGLF 070220Z AUTO 26006KT 9999 NCD 08/08 Q1004 W (260°) 6.9mph 8°C 8°C
7/06/20 02:50 EGLF 070150Z AUTO 26004KT 9999 FEW030/// 06/06 Q1004 REUP W (260°) 4.6mph 6°C 6°C
7/06/20 02:20 EGLF 070120Z AUTO 22003KT 7000 NCD 07/07 Q1004 SW (220°) 3.5mph 7°C 7°C
7/06/20 01:50 EGLF 070050Z AUTO 00000KT 9999 NCD 08/07 Q1004 N (0°) 8°C 7°C
7/06/20 01:20 EGLF 070020Z AUTO 26005KT 9999 FEW047/// 09/08 Q1004 W (260°) 5.8mph 9°C 8°C
7/06/20 00:50 EGLF 062350Z AUTO 25006KT 9999 NCD 10/08 Q1004 WSW (250°) 6.9mph 10°C 8°C
7/06/20 00:20 EGLF 062320Z AUTO 25005KT 9999 NCD 10/09 Q1003 WSW (250°) 5.8mph 10°C 9°C
6/06/20 23:50 EGLF 062250Z AUTO 25005KT 9999 NCD 10/09 Q1003 WSW (250°) 5.8mph 10°C 9°C
6/06/20 23:20 EGLF 062220Z AUTO 24006KT 9999 NCD 10/09 Q1003 WSW (240°) 6.9mph 10°C 9°C
6/06/20 22:50 EGLF 062150Z AUTO 24006KT 9999 FEW038/// SCT049/// 10/09 Q1003 WSW (240°) 6.9mph 10°C 9°C
6/06/20 22:20 EGLF 062120Z AUTO 27005KT 240V320 9999 SCT039/// 10/09 Q1003 W (270°) 5.8mph 10°C 9°C
6/06/20 21:50 EGLF 062050Z AUTO 24005KT 9999 NCD 10/08 Q1002 WSW (240°) 5.8mph 10°C 8°C
6/06/20 21:20 EGLF 062020Z AUTO 24008KT 9999 FEW039/// 10/08 Q1001 WSW (240°) 9.2mph 10°C 8°C
6/06/20 20:50 EGLF 061950Z AUTO 24010KT 9999 FEW039/// BKN045/// 11/08 Q1001 REDZ WSW (240°) 11.5mph 11°C 8°C
6/06/20 20:20 EGLF 061920Z AUTO 26007KT 240V300 9999 FEW029/// BKN049/// 12/09 Q1001 W (260°) 8.1mph 12°C 9°C
6/06/20 19:20 EGLF 061820Z 25012KT 9999 VCSH FEW018CB SCT042 13/09 Q1000 VCSH WSW (250°) 13.8mph 13°C 9°C
6/06/20 18:50 EGLF 061750Z 25015KT 9999 VCSH FEW020CB SCT040 13/09 Q0999 VCSH WSW (250°) 17.3mph 13°C 9°C
6/06/20 18:20 EGLF 061720Z 25014KT 9999 VCSH FEW020CB SCT042 13/09 Q0999 VCSH WSW (250°) 16.1mph 13°C 9°C
6/06/20 17:50 EGLF 061650Z 24015KT 9999 -RA SCT019 SCT042 13/09 Q0999 -RA WSW (240°) 17.3mph 13°C 9°C
6/06/20 17:20 EGLF 061620Z 25017KT 220V290 9999 SCT019 SCT046 13/09 Q0999 WSW (250°) 19.6mph 13°C 9°C
6/06/20 16:50 EGLF 061550Z 24017KT 9999 BKN019 BKN039 12/09 Q0999 WSW (240°) 19.6mph 12°C 9°C
6/06/20 16:20 EGLF 061520Z 24016KT 9999 SCT020 BKN035 12/09 Q0999 WSW (240°) 18.4mph 12°C 9°C
6/06/20 15:50 EGLF 061450Z 24014KT 9999 -RA SCT020 BKN029 12/09 Q0999 REUP -RA WSW (240°) 16.1mph 12°C 9°C
6/06/20 15:20 EGLF 061420Z 24016KT 9999 -RA SCT019/// BKN025 12/08 Q0999 -RA WSW (240°) 18.4mph 12°C 8°C
6/06/20 14:50 EGLF 061350Z 25017KT 9999 -RA SCT019/// BKN027 12/08 Q0999 -RA WSW (250°) 19.6mph 12°C 8°C
6/06/20 13:50 EGLF 061250Z 24016KT 210V270 9999 -RA FEW019 BKN031 11/08 Q0999 -RA WSW (240°) 18.4mph 11°C 8°C
6/06/20 13:20 EGLF 061220Z 25017KT 220V290 9999 -RA FEW024 BKN030 11/07 Q0999 REUP -RA WSW (250°) 19.6mph 11°C 7°C
6/06/20 12:50 EGLF 061150Z 25017KT 9999 -RA FEW028 BKN032 11/07 Q0999 -RA WSW (250°) 19.6mph 11°C 7°C
6/06/20 12:20 EGLF 061120Z 24022KT 9999 -RA BKN031 12/06 Q0999 -RA WSW (240°) 25.3mph 12°C 6°C
6/06/20 11:50 EGLF 061050Z 24019G30KT 9999 VCSH BKN028 11/06 Q0999 REUP VCSH WSW (240°) 21.9mph 34.5mph 11°C 6°C
6/06/20 11:20 EGLF 061020Z AUTO 24018KT 210V270 9999 BKN033/// OVC040/// 13/04 Q0999 WSW (240°) 20.7mph 13°C 4°C
6/06/20 10:50 EGLF 060950Z AUTO 24017G28KT 9999 BKN034/// 12/05 Q0999 WSW (240°) 19.6mph 32.2mph 12°C 5°C
6/06/20 10:20 EGLF 060920Z 25019G30KT 230V290 9999 BKN033 12/03 Q0999 WSW (250°) 21.9mph 34.5mph 12°C 3°C
6/06/20 09:50 EGLF 060850Z AUTO 26018G28KT 9999 BKN034/// 11/03 Q0999 W (260°) 20.7mph 32.2mph 11°C 3°C
6/06/20 09:20 EGLF 060820Z AUTO 26015KT 220V320 9999 BKN035/// 11/03 Q0999 W (260°) 17.3mph 11°C 3°C
6/06/20 08:50 EGLF 060750Z AUTO 26017KT 230V300 9999 FEW038/// 11/02 Q0999 W (260°) 19.6mph 11°C 2°C
6/06/20 08:20 EGLF 060720Z AUTO 25015G25KT 9999 NCD 10/03 Q0999 WSW (250°) 17.3mph 28.8mph 10°C 3°C
6/06/20 07:50 EGLF 060650Z 25015KT 220V280 CAVOK 09/03 Q0999 WSW (250°) 17.3mph 9°C 3°C
6/06/20 07:20 EGLF 060620Z AUTO 26012KT 230V290 9999 NCD 08/03 Q0999 W (260°) 13.8mph 8°C 3°C
6/06/20 06:50 EGLF 060550Z AUTO 26012KT 9999 NCD 08/03 Q0999 W (260°) 13.8mph 8°C 3°C
6/06/20 05:50 EGLF 060450Z AUTO 25011KT 9999 NCD 07/03 Q0999 WSW (250°) 12.7mph 7°C 3°C
6/06/20 05:20 EGLF 060420Z AUTO 25011KT 9999 NCD 07/03 Q0999 WSW (250°) 12.7mph 7°C 3°C
6/06/20 04:50 EGLF 060350Z AUTO 25009KT 9999 NCD 06/04 Q0999 WSW (250°) 10.4mph 6°C 4°C
6/06/20 04:20 EGLF 060320Z AUTO 25009KT 9999 NCD 07/04 Q0999 WSW (250°) 10.4mph 7°C 4°C
6/06/20 03:50 EGLF 060250Z AUTO 25009KT 230V290 9999 NCD 07/03 Q0999 WSW (250°) 10.4mph 7°C 3°C
6/06/20 03:20 EGLF 060220Z AUTO 25007KT 9999 NCD 07/03 Q0999 WSW (250°) 8.1mph 7°C 3°C
6/06/20 02:50 EGLF 060150Z AUTO 25008KT 9999 NCD 07/03 Q0999 WSW (250°) 9.2mph 7°C 3°C
6/06/20 02:20 EGLF 060120Z AUTO 25007KT 9999 NCD 07/04 Q0999 WSW (250°) 8.1mph 7°C 4°C
6/06/20 01:50 EGLF 060050Z AUTO 26007KT 9999 NCD 08/04 Q0999 W (260°) 8.1mph 8°C 4°C
6/06/20 01:20 EGLF 060020Z AUTO 26007KT 9999 NCD 08/04 Q0999 W (260°) 8.1mph 8°C 4°C
6/06/20 00:50 EGLF 052350Z AUTO 26008KT 9999 NCD 09/04 Q0999 W (260°) 9.2mph 9°C 4°C
6/06/20 00:20 EGLF 052320Z AUTO 25008KT 9999 NCD 09/04 Q0999 WSW (250°) 9.2mph 9°C 4°C
5/06/20 23:50 EGLF 052250Z AUTO 25009KT 9999 NCD 10/04 Q0999 WSW (250°) 10.4mph 10°C 4°C
5/06/20 23:20 EGLF 052220Z AUTO 25009KT 9999 NCD 10/04 Q0999 WSW (250°) 10.4mph 10°C 4°C
5/06/20 22:50 EGLF 052150Z AUTO 25010KT 9999 NCD 11/04 Q0999 WSW (250°) 11.5mph 11°C 4°C
5/06/20 22:20 EGLF 052120Z AUTO 25009KT 230V290 9999 NCD 12/02 Q0998 WSW (250°) 10.4mph 12°C 2°C
5/06/20 21:50 EGLF 052050Z AUTO 28009KT 250V320 9999 NCD 13/01 Q0998 W (280°) 10.4mph 13°C 1°C
5/06/20 21:20 EGLF 052020Z AUTO 28007KT 240V310 9999 NCD 13/01 Q0998 W (280°) 8.1mph 13°C 1°C
5/06/20 20:50 EGLF 051950Z AUTO 26006KT 240V300 9999 NCD 13/03 Q0998 W (260°) 6.9mph 13°C 3°C
5/06/20 20:20 EGLF 051920Z AUTO 29006KT 9999 NCD 13/02 Q0998 WNW (290°) 6.9mph 13°C 2°C
5/06/20 19:50 EGLF 051850Z AUTO 29009KT 250V320 9999 NCD 14/02 Q0998 WNW (290°) 10.4mph 14°C 2°C
5/06/20 18:50 EGLF 051750Z AUTO 30013KT 270V340 9999 NCD 15/00 Q0998 WNW (300°) 15.0mph 15°C 0°C
5/06/20 18:20 EGLF 051720Z AUTO 32017KT 9999 NCD 15/03 Q0998 NW (320°) 19.6mph 15°C 3°C
5/06/20 17:50 EGLF 051650Z AUTO 28010KT 240V320 9999 NCD 15/02 Q0997 W (280°) 11.5mph 15°C 2°C
5/06/20 17:20 EGLF 051620Z 30011KT 260V330 9999 FEW042 16/02 Q0997 WNW (300°) 12.7mph 16°C 2°C
5/06/20 16:50 EGLF 051550Z 31013KT 9999 VCSH FEW042 16/02 Q0997 VCSH NW (310°) 15.0mph 16°C 2°C
5/06/20 16:20 EGLF 051520Z 30012KT 250V360 9999 VCSH FEW042 16/03 Q0997 VCSH WNW (300°) 13.8mph 16°C 3°C
5/06/20 15:50 EGLF 051450Z 30009KT 260V340 9999 VCSH FEW040 15/03 Q0997 VCSH WNW (300°) 10.4mph 15°C 3°C
5/06/20 15:20 EGLF 051420Z AUTO 31009KT 280V360 9999 NCD 15/02 Q0997 NW (310°) 10.4mph 15°C 2°C
5/06/20 14:50 EGLF 051350Z AUTO 29011KT 230V330 9999 NCD 17/01 Q0997 WNW (290°) 12.7mph 17°C 1°C
5/06/20 14:20 EGLF 051320Z 29012KT 250V330 CAVOK 16/02 Q0997 WNW (290°) 13.8mph 16°C 2°C
5/06/20 13:20 EGLF 051220Z AUTO 31011KT 260V330 9999 FEW048/// 14/04 Q0997 NW (310°) 12.7mph 14°C 4°C
5/06/20 12:50 EGLF 051150Z AUTO 32014KT 9999 NCD 15/03 Q0996 NW (320°) 16.1mph 15°C 3°C
5/06/20 12:20 EGLF 051120Z AUTO 31012KT 270V350 9999 NCD 15/03 Q0996 NW (310°) 13.8mph 15°C 3°C
5/06/20 11:50 EGLF 051050Z AUTO 30013KT 260V330 9999 FEW049/// 15/03 Q0996 WNW (300°) 15.0mph 15°C 3°C
5/06/20 11:20 EGLF 051020Z AUTO 29011KT 9999 FEW047/// 14/03 Q0996 WNW (290°) 12.7mph 14°C 3°C
5/06/20 10:20 EGLF 050920Z AUTO 31014KT 270V340 9999 FEW042/// 13/04 Q0996 NW (310°) 16.1mph 13°C 4°C
5/06/20 09:20 EGLF 050820Z AUTO 28011KT 240V310 9999 SCT038/// BKN045/// 13/04 Q0996 W (280°) 12.7mph 13°C 4°C
5/06/20 08:50 EGLF 050750Z AUTO 30015KT 270V330 9999 BKN041/// 13/03 Q0996 WNW (300°) 17.3mph 13°C 3°C
5/06/20 07:50 EGLF 050650Z AUTO 29010KT 250V310 9999 NCD 12/03 Q0996 WNW (290°) 11.5mph 12°C 3°C
5/06/20 07:20 EGLF 050620Z AUTO 29014G28KT 9999 NCD 12/04 Q0996 WNW (290°) 16.1mph 32.2mph 12°C 4°C
5/06/20 06:50 EGLF 050550Z 29012KT 250V330 9999 FEW010 12/04 Q0996 WNW (290°) 13.8mph 12°C 4°C
5/06/20 06:20 EGLF 050520Z AUTO 30012KT 260V330 9999 BKN048/// 12/04 Q0996 WNW (300°) 13.8mph 12°C 4°C
5/06/20 05:20 EGLF 050420Z AUTO 25008KT 9999 FEW044/// 11/09 Q0996 WSW (250°) 9.2mph 11°C 9°C
5/06/20 04:50 EGLF 050350Z AUTO 25009KT 9999 FEW011/// 11/10 Q0996 WSW (250°) 10.4mph 11°C 10°C